sensor_id;sensor_type;location;lat;lon;timestamp;P1;durP1;ratioP1;P2;durP2;ratioP2
836;SDS011;400;53.550;9.932;2023-06-24T00:01:22;13.13;;;11.77;;
836;SDS011;400;53.550;9.932;2023-06-24T00:03:59;12.23;;;11.03;;
836;SDS011;400;53.550;9.932;2023-06-24T00:06:36;11.83;;;10.90;;
836;SDS011;400;53.550;9.932;2023-06-24T00:09:08;11.83;;;10.83;;
836;SDS011;400;53.550;9.932;2023-06-24T00:11:36;12.53;;;11.57;;
836;SDS011;400;53.550;9.932;2023-06-24T00:14:04;12.73;;;11.77;;
836;SDS011;400;53.550;9.932;2023-06-24T00:16:31;11.50;;;10.50;;
836;SDS011;400;53.550;9.932;2023-06-24T00:19:01;12.30;;;11.20;;
836;SDS011;400;53.550;9.932;2023-06-24T00:21:29;11.93;;;10.80;;
836;SDS011;400;53.550;9.932;2023-06-24T00:24:05;11.20;;;10.20;;
836;SDS011;400;53.550;9.932;2023-06-24T00:26:39;13.13;;;11.90;;
836;SDS011;400;53.550;9.932;2023-06-24T00:29:11;13.17;;;10.97;;
836;SDS011;400;53.550;9.932;2023-06-24T00:31:42;11.93;;;10.93;;
836;SDS011;400;53.550;9.932;2023-06-24T00:34:24;12.50;;;11.23;;
836;SDS011;400;53.550;9.932;2023-06-24T00:37:02;12.20;;;10.97;;
836;SDS011;400;53.550;9.932;2023-06-24T00:39:43;12.30;;;11.27;;
836;SDS011;400;53.550;9.932;2023-06-24T00:42:17;12.00;;;11.00;;
836;SDS011;400;53.550;9.932;2023-06-24T00:44:44;12.57;;;11.57;;
836;SDS011;400;53.550;9.932;2023-06-24T00:47:21;12.47;;;11.10;;
836;SDS011;400;53.550;9.932;2023-06-24T00:49:49;12.77;;;11.47;;
836;SDS011;400;53.550;9.932;2023-06-24T00:52:16;13.83;;;12.47;;
836;SDS011;400;53.550;9.932;2023-06-24T00:54:43;12.17;;;11.10;;
836;SDS011;400;53.550;9.932;2023-06-24T00:57:35;14.33;;;12.37;;
836;SDS011;400;53.550;9.932;2023-06-24T01:00:04;12.67;;;11.20;;
836;SDS011;400;53.550;9.932;2023-06-24T01:02:39;11.80;;;10.70;;
836;SDS011;400;53.550;9.932;2023-06-24T01:05:14;13.10;;;11.97;;
836;SDS011;400;53.550;9.932;2023-06-24T01:07:53;12.37;;;11.33;;
836;SDS011;400;53.550;9.932;2023-06-24T01:10:21;12.50;;;11.40;;
836;SDS011;400;53.550;9.932;2023-06-24T01:12:52;12.43;;;10.77;;
836;SDS011;400;53.550;9.932;2023-06-24T01:15:19;12.33;;;11.30;;
836;SDS011;400;53.550;9.932;2023-06-24T01:17:51;12.70;;;11.50;;
836;SDS011;400;53.550;9.932;2023-06-24T01:20:39;12.90;;;11.70;;
836;SDS011;400;53.550;9.932;2023-06-24T01:26:33;12.53;;;11.43;;
836;SDS011;400;53.550;9.932;2023-06-24T01:35:29;15.10;;;12.50;;
836;SDS011;400;53.550;9.932;2023-06-24T01:38:07;13.20;;;12.00;;
836;SDS011;400;53.550;9.932;2023-06-24T01:40:50;15.37;;;13.77;;
836;SDS011;400;53.550;9.932;2023-06-24T01:43:21;14.97;;;13.47;;
836;SDS011;400;53.550;9.932;2023-06-24T01:45:53;16.50;;;14.93;;
836;SDS011;400;53.550;9.932;2023-06-24T01:48:24;15.47;;;13.97;;
836;SDS011;400;53.550;9.932;2023-06-24T01:51:01;15.90;;;14.20;;
836;SDS011;400;53.550;9.932;2023-06-24T01:53:35;17.17;;;15.57;;
836;SDS011;400;53.550;9.932;2023-06-24T01:56:15;16.70;;;15.00;;
836;SDS011;400;53.550;9.932;2023-06-24T01:58:45;16.17;;;14.77;;
836;SDS011;400;53.550;9.932;2023-06-24T02:01:13;16.97;;;15.00;;
836;SDS011;400;53.550;9.932;2023-06-24T02:03:56;17.50;;;15.70;;
836;SDS011;400;53.550;9.932;2023-06-24T02:06:42;15.77;;;14.30;;
836;SDS011;400;53.550;9.932;2023-06-24T02:09:10;18.93;;;16.10;;
836;SDS011;400;53.550;9.932;2023-06-24T02:14:28;16.83;;;15.30;;
836;SDS011;400;53.550;9.932;2023-06-24T02:16:56;17.33;;;15.60;;
836;SDS011;400;53.550;9.932;2023-06-24T02:19:34;18.17;;;16.23;;
836;SDS011;400;53.550;9.932;2023-06-24T02:22:22;18.30;;;16.47;;
836;SDS011;400;53.550;9.932;2023-06-24T02:24:53;19.90;;;17.87;;
836;SDS011;400;53.550;9.932;2023-06-24T02:27:45;18.87;;;17.07;;
836;SDS011;400;53.550;9.932;2023-06-24T02:30:18;18.03;;;16.23;;
836;SDS011;400;53.550;9.932;2023-06-24T02:32:49;18.60;;;16.80;;
836;SDS011;400;53.550;9.932;2023-06-24T02:35:17;18.63;;;16.77;;
836;SDS011;400;53.550;9.932;2023-06-24T02:37:53;18.70;;;16.93;;
836;SDS011;400;53.550;9.932;2023-06-24T02:40:23;20.37;;;18.37;;
836;SDS011;400;53.550;9.932;2023-06-24T02:42:56;18.83;;;17.13;;
836;SDS011;400;53.550;9.932;2023-06-24T02:45:27;19.53;;;17.50;;
836;SDS011;400;53.550;9.932;2023-06-24T02:48:03;18.63;;;16.60;;
836;SDS011;400;53.550;9.932;2023-06-24T02:53:21;17.97;;;16.17;;
836;SDS011;400;53.550;9.932;2023-06-24T02:55:56;18.70;;;16.73;;
836;SDS011;400;53.550;9.932;2023-06-24T02:58:59;18.87;;;16.90;;
836;SDS011;400;53.550;9.932;2023-06-24T03:01:50;17.00;;;15.50;;
836;SDS011;400;53.550;9.932;2023-06-24T03:07:21;18.60;;;16.20;;
836;SDS011;400;53.550;9.932;2023-06-24T03:10:06;18.20;;;15.60;;
836;SDS011;400;53.550;9.932;2023-06-24T03:12:35;18.57;;;16.87;;
836;SDS011;400;53.550;9.932;2023-06-24T03:15:24;17.20;;;15.50;;
836;SDS011;400;53.550;9.932;2023-06-24T03:21:37;17.67;;;15.87;;
836;SDS011;400;53.550;9.932;2023-06-24T03:24:07;16.90;;;15.20;;
836;SDS011;400;53.550;9.932;2023-06-24T03:26:51;19.50;;;17.60;;
836;SDS011;400;53.550;9.932;2023-06-24T03:29:22;20.43;;;18.43;;
836;SDS011;400;53.550;9.932;2023-06-24T03:31:53;18.63;;;16.23;;
836;SDS011;400;53.550;9.932;2023-06-24T03:35:03;18.87;;;16.87;;
836;SDS011;400;53.550;9.932;2023-06-24T03:38:04;17.87;;;16.27;;
836;SDS011;400;53.550;9.932;2023-06-24T03:40:43;19.63;;;17.73;;
836;SDS011;400;53.550;9.932;2023-06-24T03:46:25;18.50;;;16.90;;
836;SDS011;400;53.550;9.932;2023-06-24T03:49:11;20.13;;;17.90;;
836;SDS011;400;53.550;9.932;2023-06-24T03:51:49;18.33;;;16.60;;
836;SDS011;400;53.550;9.932;2023-06-24T03:54:57;18.23;;;16.43;;
836;SDS011;400;53.550;9.932;2023-06-24T03:57:35;19.10;;;16.67;;
836;SDS011;400;53.550;9.932;2023-06-24T04:00:08;18.97;;;17.00;;
836;SDS011;400;53.550;9.932;2023-06-24T04:02:49;17.40;;;15.80;;
836;SDS011;400;53.550;9.932;2023-06-24T04:05:22;19.70;;;17.67;;
836;SDS011;400;53.550;9.932;2023-06-24T04:07:52;18.80;;;16.90;;
836;SDS011;400;53.550;9.932;2023-06-24T04:10:36;18.63;;;16.77;;
836;SDS011;400;53.550;9.932;2023-06-24T04:13:18;18.97;;;17.07;;
836;SDS011;400;53.550;9.932;2023-06-24T04:15:52;20.03;;;18.27;;
836;SDS011;400;53.550;9.932;2023-06-24T04:18:36;18.40;;;16.60;;
836;SDS011;400;53.550;9.932;2023-06-24T04:21:04;18.10;;;16.40;;
836;SDS011;400;53.550;9.932;2023-06-24T04:23:31;17.07;;;15.30;;
836;SDS011;400;53.550;9.932;2023-06-24T04:25:58;19.13;;;17.33;;
836;SDS011;400;53.550;9.932;2023-06-24T04:28:29;16.43;;;14.83;;
836;SDS011;400;53.550;9.932;2023-06-24T04:30:56;17.17;;;15.60;;
836;SDS011;400;53.550;9.932;2023-06-24T04:33:23;17.03;;;15.43;;
836;SDS011;400;53.550;9.932;2023-06-24T04:35:50;17.20;;;15.70;;
836;SDS011;400;53.550;9.932;2023-06-24T04:38:17;17.10;;;15.60;;
836;SDS011;400;53.550;9.932;2023-06-24T04:40:44;14.97;;;13.67;;
836;SDS011;400;53.550;9.932;2023-06-24T04:43:11;17.93;;;15.90;;
836;SDS011;400;53.550;9.932;2023-06-24T04:45:39;18.00;;;15.30;;
836;SDS011;400;53.550;9.932;2023-06-24T04:48:06;16.37;;;14.97;;
836;SDS011;400;53.550;9.932;2023-06-24T04:50:33;16.07;;;14.77;;
836;SDS011;400;53.550;9.932;2023-06-24T04:52:59;17.53;;;15.60;;
836;SDS011;400;53.550;9.932;2023-06-24T04:55:27;16.70;;;15.20;;
836;SDS011;400;53.550;9.932;2023-06-24T04:57:56;15.93;;;14.53;;
836;SDS011;400;53.550;9.932;2023-06-24T05:00:27;15.67;;;14.27;;
836;SDS011;400;53.550;9.932;2023-06-24T05:02:58;17.47;;;15.77;;
836;SDS011;400;53.550;9.932;2023-06-24T05:05:25;16.40;;;15.00;;
836;SDS011;400;53.550;9.932;2023-06-24T05:07:53;16.23;;;14.60;;
836;SDS011;400;53.550;9.932;2023-06-24T05:10:20;16.10;;;14.60;;
836;SDS011;400;53.550;9.932;2023-06-24T05:12:48;15.30;;;14.00;;
836;SDS011;400;53.550;9.932;2023-06-24T05:15:18;15.17;;;13.77;;
836;SDS011;400;53.550;9.932;2023-06-24T05:17:45;14.30;;;12.90;;
836;SDS011;400;53.550;9.932;2023-06-24T05:20:13;15.07;;;13.77;;
836;SDS011;400;53.550;9.932;2023-06-24T05:22:40;14.57;;;13.37;;
836;SDS011;400;53.550;9.932;2023-06-24T05:25:07;15.00;;;13.77;;
836;SDS011;400;53.550;9.932;2023-06-24T05:27:34;16.10;;;14.50;;
836;SDS011;400;53.550;9.932;2023-06-24T05:30:01;14.43;;;13.33;;
836;SDS011;400;53.550;9.932;2023-06-24T05:32:28;15.83;;;14.33;;
836;SDS011;400;53.550;9.932;2023-06-24T05:34:55;16.10;;;14.60;;
836;SDS011;400;53.550;9.932;2023-06-24T05:37:23;14.13;;;12.97;;
836;SDS011;400;53.550;9.932;2023-06-24T05:39:50;18.03;;;15.40;;
836;SDS011;400;53.550;9.932;2023-06-24T05:42:17;15.90;;;14.40;;
836;SDS011;400;53.550;9.932;2023-06-24T05:44:44;14.20;;;12.90;;
836;SDS011;400;53.550;9.932;2023-06-24T05:47:11;14.10;;;12.90;;
836;SDS011;400;53.550;9.932;2023-06-24T05:49:37;13.53;;;12.13;;
836;SDS011;400;53.550;9.932;2023-06-24T05:52:05;15.27;;;13.77;;
836;SDS011;400;53.550;9.932;2023-06-24T05:54:33;13.20;;;11.97;;
836;SDS011;400;53.550;9.932;2023-06-24T05:57:00;14.37;;;11.47;;
836;SDS011;400;53.550;9.932;2023-06-24T05:59:31;11.23;;;10.23;;
836;SDS011;400;53.550;9.932;2023-06-24T06:01:58;12.97;;;11.70;;
836;SDS011;400;53.550;9.932;2023-06-24T06:04:26;10.87;;;9.90;;
836;SDS011;400;53.550;9.932;2023-06-24T06:06:53;12.23;;;11.17;;
836;SDS011;400;53.550;9.932;2023-06-24T06:09:20;10.60;;;8.83;;
836;SDS011;400;53.550;9.932;2023-06-24T06:11:49;11.17;;;9.63;;
836;SDS011;400;53.550;9.932;2023-06-24T06:14:16;11.23;;;10.13;;
836;SDS011;400;53.550;9.932;2023-06-24T06:16:43;10.30;;;9.17;;
836;SDS011;400;53.550;9.932;2023-06-24T06:19:10;9.47;;;8.67;;
836;SDS011;400;53.550;9.932;2023-06-24T06:21:38;8.17;;;7.47;;
836;SDS011;400;53.550;9.932;2023-06-24T06:24:05;8.23;;;7.50;;
836;SDS011;400;53.550;9.932;2023-06-24T06:26:33;9.07;;;8.37;;
836;SDS011;400;53.550;9.932;2023-06-24T06:29:01;7.23;;;6.73;;
836;SDS011;400;53.550;9.932;2023-06-24T06:31:27;9.03;;;7.97;;
836;SDS011;400;53.550;9.932;2023-06-24T06:33:54;9.03;;;8.23;;
836;SDS011;400;53.550;9.932;2023-06-24T06:36:21;9.50;;;8.60;;
836;SDS011;400;53.550;9.932;2023-06-24T06:38:48;8.00;;;7.30;;
836;SDS011;400;53.550;9.932;2023-06-24T06:41:16;7.53;;;6.83;;
836;SDS011;400;53.550;9.932;2023-06-24T06:43:49;7.40;;;6.80;;
836;SDS011;400;53.550;9.932;2023-06-24T06:46:17;7.43;;;6.73;;
836;SDS011;400;53.550;9.932;2023-06-24T06:48:44;7.40;;;6.70;;
836;SDS011;400;53.550;9.932;2023-06-24T06:51:11;8.63;;;7.83;;
836;SDS011;400;53.550;9.932;2023-06-24T06:53:38;7.17;;;6.67;;
836;SDS011;400;53.550;9.932;2023-06-24T06:56:05;8.00;;;7.20;;
836;SDS011;400;53.550;9.932;2023-06-24T06:58:32;8.13;;;7.30;;
836;SDS011;400;53.550;9.932;2023-06-24T07:00:59;32.77;;;29.50;;
836;SDS011;400;53.550;9.932;2023-06-24T07:03:31;51.03;;;46.57;;
836;SDS011;400;53.550;9.932;2023-06-24T07:05:58;8.57;;;7.80;;
836;SDS011;400;53.550;9.932;2023-06-24T07:08:25;10.73;;;8.87;;
836;SDS011;400;53.550;9.932;2023-06-24T07:10:52;8.83;;;8.13;;
836;SDS011;400;53.550;9.932;2023-06-24T07:13:20;7.03;;;6.53;;
836;SDS011;400;53.550;9.932;2023-06-24T07:15:47;6.50;;;6.03;;
836;SDS011;400;53.550;9.932;2023-06-24T07:18:13;6.73;;;6.13;;
836;SDS011;400;53.550;9.932;2023-06-24T07:20:41;6.77;;;5.97;;
836;SDS011;400;53.550;9.932;2023-06-24T07:23:08;31.47;;;29.00;;
836;SDS011;400;53.550;9.932;2023-06-24T07:25:36;55.87;;;50.27;;
836;SDS011;400;53.550;9.932;2023-06-24T07:28:03;29.37;;;26.87;;
836;SDS011;400;53.550;9.932;2023-06-24T07:30:30;11.00;;;9.90;;
836;SDS011;400;53.550;9.932;2023-06-24T07:32:57;6.70;;;5.70;;
836;SDS011;400;53.550;9.932;2023-06-24T07:35:30;6.90;;;6.20;;
836;SDS011;400;53.550;9.932;2023-06-24T07:37:58;5.77;;;5.33;;
836;SDS011;400;53.550;9.932;2023-06-24T07:40:26;7.33;;;5.60;;
836;SDS011;400;53.550;9.932;2023-06-24T07:42:52;6.33;;;5.83;;
836;SDS011;400;53.550;9.932;2023-06-24T07:45:20;5.40;;;4.87;;
836;SDS011;400;53.550;9.932;2023-06-24T07:47:47;4.93;;;4.53;;
836;SDS011;400;53.550;9.932;2023-06-24T07:50:17;5.70;;;4.97;;
836;SDS011;400;53.550;9.932;2023-06-24T07:52:46;4.67;;;4.30;;
836;SDS011;400;53.550;9.932;2023-06-24T07:55:15;5.30;;;4.90;;
836;SDS011;400;53.550;9.932;2023-06-24T07:57:44;5.43;;;4.83;;
836;SDS011;400;53.550;9.932;2023-06-24T08:00:12;4.60;;;4.30;;
836;SDS011;400;53.550;9.932;2023-06-24T08:02:40;5.47;;;5.03;;
836;SDS011;400;53.550;9.932;2023-06-24T08:05:10;7.47;;;4.87;;
836;SDS011;400;53.550;9.932;2023-06-24T08:07:45;4.87;;;4.40;;
836;SDS011;400;53.550;9.932;2023-06-24T08:10:18;4.40;;;4.10;;
836;SDS011;400;53.550;9.932;2023-06-24T08:12:47;5.07;;;4.53;;
836;SDS011;400;53.550;9.932;2023-06-24T08:15:14;4.60;;;4.20;;
836;SDS011;400;53.550;9.932;2023-06-24T08:17:41;4.13;;;3.70;;
836;SDS011;400;53.550;9.932;2023-06-24T08:20:11;4.97;;;4.47;;
836;SDS011;400;53.550;9.932;2023-06-24T08:22:38;5.20;;;3.93;;
836;SDS011;400;53.550;9.932;2023-06-24T08:25:05;5.30;;;4.90;;
836;SDS011;400;53.550;9.932;2023-06-24T08:27:35;5.40;;;5.10;;
836;SDS011;400;53.550;9.932;2023-06-24T08:30:06;4.83;;;4.53;;
836;SDS011;400;53.550;9.932;2023-06-24T08:32:34;5.20;;;4.80;;
836;SDS011;400;53.550;9.932;2023-06-24T08:35:01;5.30;;;5.00;;
836;SDS011;400;53.550;9.932;2023-06-24T08:37:29;29.50;;;26.70;;
836;SDS011;400;53.550;9.932;2023-06-24T08:39:56;5.73;;;5.33;;
836;SDS011;400;53.550;9.932;2023-06-24T08:42:22;8.93;;;8.23;;
836;SDS011;400;53.550;9.932;2023-06-24T08:44:53;6.20;;;5.50;;
836;SDS011;400;53.550;9.932;2023-06-24T08:47:23;6.40;;;5.87;;
836;SDS011;400;53.550;9.932;2023-06-24T08:49:57;4.93;;;4.50;;
836;SDS011;400;53.550;9.932;2023-06-24T08:52:32;9.23;;;8.53;;
836;SDS011;400;53.550;9.932;2023-06-24T08:55:06;8.43;;;6.60;;
836;SDS011;400;53.550;9.932;2023-06-24T08:57:36;5.23;;;4.73;;
836;SDS011;400;53.550;9.932;2023-06-24T09:00:06;5.10;;;4.80;;
836;SDS011;400;53.550;9.932;2023-06-24T09:02:38;4.63;;;4.33;;
836;SDS011;400;53.550;9.932;2023-06-24T09:05:06;4.63;;;4.23;;
836;SDS011;400;53.550;9.932;2023-06-24T09:07:36;4.40;;;4.10;;
836;SDS011;400;53.550;9.932;2023-06-24T09:10:05;4.67;;;4.37;;
836;SDS011;400;53.550;9.932;2023-06-24T09:12:33;4.57;;;4.27;;
836;SDS011;400;53.550;9.932;2023-06-24T09:15:01;5.00;;;4.60;;
836;SDS011;400;53.550;9.932;2023-06-24T09:17:31;5.43;;;4.90;;
836;SDS011;400;53.550;9.932;2023-06-24T09:20:02;4.97;;;4.67;;
836;SDS011;400;53.550;9.932;2023-06-24T09:22:30;5.73;;;5.30;;
836;SDS011;400;53.550;9.932;2023-06-24T09:25:00;6.23;;;5.60;;
836;SDS011;400;53.550;9.932;2023-06-24T09:27:30;5.30;;;4.80;;
836;SDS011;400;53.550;9.932;2023-06-24T09:29:58;6.20;;;5.60;;
836;SDS011;400;53.550;9.932;2023-06-24T09:32:30;6.13;;;5.63;;
836;SDS011;400;53.550;9.932;2023-06-24T09:34:57;6.13;;;5.63;;
836;SDS011;400;53.550;9.932;2023-06-24T09:37:24;8.37;;;7.77;;
836;SDS011;400;53.550;9.932;2023-06-24T09:39:55;6.70;;;6.00;;
836;SDS011;400;53.550;9.932;2023-06-24T09:42:23;7.50;;;6.80;;
836;SDS011;400;53.550;9.932;2023-06-24T09:44:53;5.97;;;5.37;;
836;SDS011;400;53.550;9.932;2023-06-24T09:47:20;5.70;;;5.20;;
836;SDS011;400;53.550;9.932;2023-06-24T09:49:51;5.17;;;4.70;;
836;SDS011;400;53.550;9.932;2023-06-24T09:52:19;6.80;;;6.30;;
836;SDS011;400;53.550;9.932;2023-06-24T09:54:48;5.40;;;5.03;;
836;SDS011;400;53.550;9.932;2023-06-24T09:57:17;6.37;;;5.63;;
836;SDS011;400;53.550;9.932;2023-06-24T09:59:50;6.20;;;5.63;;
836;SDS011;400;53.550;9.932;2023-06-24T10:02:18;6.10;;;5.53;;
836;SDS011;400;53.550;9.932;2023-06-24T10:04:49;6.10;;;5.57;;
836;SDS011;400;53.550;9.932;2023-06-24T10:07:19;6.17;;;5.57;;
836;SDS011;400;53.550;9.932;2023-06-24T10:09:47;5.70;;;5.30;;
836;SDS011;400;53.550;9.932;2023-06-24T10:12:15;6.90;;;6.30;;
836;SDS011;400;53.550;9.932;2023-06-24T10:14:42;5.30;;;4.90;;
836;SDS011;400;53.550;9.932;2023-06-24T10:17:12;6.17;;;5.67;;
836;SDS011;400;53.550;9.932;2023-06-24T10:19:39;5.83;;;5.30;;
836;SDS011;400;53.550;9.932;2023-06-24T10:22:08;6.20;;;5.70;;
836;SDS011;400;53.550;9.932;2023-06-24T10:24:37;5.83;;;5.43;;
836;SDS011;400;53.550;9.932;2023-06-24T10:27:13;5.77;;;5.30;;
836;SDS011;400;53.550;9.932;2023-06-24T10:29:44;5.73;;;5.20;;
836;SDS011;400;53.550;9.932;2023-06-24T10:32:17;6.90;;;6.33;;
836;SDS011;400;53.550;9.932;2023-06-24T10:34:46;6.20;;;5.70;;
836;SDS011;400;53.550;9.932;2023-06-24T10:37:24;7.37;;;6.77;;
836;SDS011;400;53.550;9.932;2023-06-24T10:40:02;6.17;;;5.77;;
836;SDS011;400;53.550;9.932;2023-06-24T10:42:36;6.13;;;5.67;;
836;SDS011;400;53.550;9.932;2023-06-24T10:45:19;10.53;;;9.67;;
836;SDS011;400;53.550;9.932;2023-06-24T10:47:54;6.93;;;6.23;;
836;SDS011;400;53.550;9.932;2023-06-24T10:50:26;6.23;;;5.73;;
836;SDS011;400;53.550;9.932;2023-06-24T10:52:54;5.73;;;5.27;;
836;SDS011;400;53.550;9.932;2023-06-24T10:55:22;6.00;;;5.60;;
836;SDS011;400;53.550;9.932;2023-06-24T10:57:51;5.63;;;5.23;;
836;SDS011;400;53.550;9.932;2023-06-24T11:00:19;5.53;;;5.00;;
836;SDS011;400;53.550;9.932;2023-06-24T11:02:50;6.27;;;5.77;;
836;SDS011;400;53.550;9.932;2023-06-24T11:05:20;6.27;;;5.77;;
836;SDS011;400;53.550;9.932;2023-06-24T11:07:50;5.67;;;5.30;;
836;SDS011;400;53.550;9.932;2023-06-24T11:10:18;5.73;;;5.33;;
836;SDS011;400;53.550;9.932;2023-06-24T11:12:46;5.73;;;5.33;;
836;SDS011;400;53.550;9.932;2023-06-24T11:15:16;6.50;;;6.00;;
836;SDS011;400;53.550;9.932;2023-06-24T11:17:44;6.10;;;5.70;;
836;SDS011;400;53.550;9.932;2023-06-24T11:20:12;5.73;;;5.33;;
836;SDS011;400;53.550;9.932;2023-06-24T11:22:40;6.70;;;6.20;;
836;SDS011;400;53.550;9.932;2023-06-24T11:25:14;5.67;;;5.20;;
836;SDS011;400;53.550;9.932;2023-06-24T11:27:47;5.30;;;4.90;;
836;SDS011;400;53.550;9.932;2023-06-24T11:30:21;5.77;;;5.27;;
836;SDS011;400;53.550;9.932;2023-06-24T11:32:51;5.83;;;5.43;;
836;SDS011;400;53.550;9.932;2023-06-24T11:35:20;5.73;;;5.30;;
836;SDS011;400;53.550;9.932;2023-06-24T11:37:50;5.90;;;5.50;;
836;SDS011;400;53.550;9.932;2023-06-24T11:40:21;7.07;;;6.57;;
836;SDS011;400;53.550;9.932;2023-06-24T11:42:55;4.90;;;4.40;;
836;SDS011;400;53.550;9.932;2023-06-24T11:45:26;4.70;;;4.30;;
836;SDS011;400;53.550;9.932;2023-06-24T11:47:52;6.10;;;5.60;;
836;SDS011;400;53.550;9.932;2023-06-24T11:50:29;5.80;;;5.37;;
836;SDS011;400;53.550;9.932;2023-06-24T11:52:56;5.63;;;5.13;;
836;SDS011;400;53.550;9.932;2023-06-24T11:55:25;5.00;;;4.67;;
836;SDS011;400;53.550;9.932;2023-06-24T11:57:58;5.73;;;5.17;;
836;SDS011;400;53.550;9.932;2023-06-24T12:00:26;5.43;;;5.10;;
836;SDS011;400;53.550;9.932;2023-06-24T12:02:55;5.20;;;4.80;;
836;SDS011;400;53.550;9.932;2023-06-24T12:05:25;10.63;;;9.77;;
836;SDS011;400;53.550;9.932;2023-06-24T12:07:55;5.00;;;4.60;;
836;SDS011;400;53.550;9.932;2023-06-24T12:10:25;5.60;;;5.20;;
836;SDS011;400;53.550;9.932;2023-06-24T12:13:02;6.73;;;6.07;;
836;SDS011;400;53.550;9.932;2023-06-24T12:15:35;5.73;;;5.27;;
836;SDS011;400;53.550;9.932;2023-06-24T12:18:13;5.30;;;4.90;;
836;SDS011;400;53.550;9.932;2023-06-24T12:20:42;5.40;;;5.00;;
836;SDS011;400;53.550;9.932;2023-06-24T12:23:08;5.53;;;5.23;;
836;SDS011;400;53.550;9.932;2023-06-24T12:25:36;5.20;;;4.80;;
836;SDS011;400;53.550;9.932;2023-06-24T12:28:06;5.10;;;4.80;;
836;SDS011;400;53.550;9.932;2023-06-24T12:30:35;4.40;;;4.10;;
836;SDS011;400;53.550;9.932;2023-06-24T12:33:06;5.40;;;4.90;;
836;SDS011;400;53.550;9.932;2023-06-24T12:35:35;5.00;;;4.60;;
836;SDS011;400;53.550;9.932;2023-06-24T12:38:02;4.60;;;4.33;;
836;SDS011;400;53.550;9.932;2023-06-24T12:40:30;5.20;;;4.80;;
836;SDS011;400;53.550;9.932;2023-06-24T12:42:58;4.93;;;4.60;;
836;SDS011;400;53.550;9.932;2023-06-24T12:45:27;4.87;;;4.40;;
836;SDS011;400;53.550;9.932;2023-06-24T12:47:55;5.00;;;4.60;;
836;SDS011;400;53.550;9.932;2023-06-24T12:50:25;5.20;;;4.80;;
836;SDS011;400;53.550;9.932;2023-06-24T12:52:52;5.50;;;5.10;;
836;SDS011;400;53.550;9.932;2023-06-24T12:55:20;4.70;;;4.40;;
836;SDS011;400;53.550;9.932;2023-06-24T12:57:47;6.00;;;5.50;;
836;SDS011;400;53.550;9.932;2023-06-24T13:00:19;5.00;;;4.70;;
836;SDS011;400;53.550;9.932;2023-06-24T13:02:49;5.60;;;5.20;;
836;SDS011;400;53.550;9.932;2023-06-24T13:05:18;5.07;;;4.77;;
836;SDS011;400;53.550;9.932;2023-06-24T13:07:50;4.70;;;4.40;;
836;SDS011;400;53.550;9.932;2023-06-24T13:10:18;5.60;;;5.13;;
836;SDS011;400;53.550;9.932;2023-06-24T13:12:47;4.33;;;4.03;;
836;SDS011;400;53.550;9.932;2023-06-24T13:15:20;4.53;;;4.23;;
836;SDS011;400;53.550;9.932;2023-06-24T13:17:57;5.47;;;5.07;;
836;SDS011;400;53.550;9.932;2023-06-24T13:20:29;4.93;;;4.63;;
836;SDS011;400;53.550;9.932;2023-06-24T13:22:59;5.57;;;5.17;;
836;SDS011;400;53.550;9.932;2023-06-24T13:25:27;4.83;;;4.53;;
836;SDS011;400;53.550;9.932;2023-06-24T13:27:55;4.50;;;4.20;;
836;SDS011;400;53.550;9.932;2023-06-24T13:30:22;5.00;;;4.60;;
836;SDS011;400;53.550;9.932;2023-06-24T13:32:49;4.63;;;4.23;;
836;SDS011;400;53.550;9.932;2023-06-24T13:35:18;4.30;;;4.00;;
836;SDS011;400;53.550;9.932;2023-06-24T13:37:45;4.43;;;4.13;;
836;SDS011;400;53.550;9.932;2023-06-24T13:40:12;4.97;;;4.67;;
836;SDS011;400;53.550;9.932;2023-06-24T13:42:40;4.87;;;4.57;;
836;SDS011;400;53.550;9.932;2023-06-24T13:45:11;6.13;;;5.73;;
836;SDS011;400;53.550;9.932;2023-06-24T13:47:39;5.40;;;5.00;;
836;SDS011;400;53.550;9.932;2023-06-24T13:50:14;3.97;;;3.77;;
836;SDS011;400;53.550;9.932;2023-06-24T13:52:46;4.33;;;4.03;;
836;SDS011;400;53.550;9.932;2023-06-24T13:55:16;5.63;;;5.17;;
836;SDS011;400;53.550;9.932;2023-06-24T13:57:46;4.17;;;3.87;;
836;SDS011;400;53.550;9.932;2023-06-24T14:00:14;5.37;;;5.00;;
836;SDS011;400;53.550;9.932;2023-06-24T14:02:42;5.30;;;4.13;;
836;SDS011;400;53.550;9.932;2023-06-24T14:05:09;3.90;;;3.70;;
836;SDS011;400;53.550;9.932;2023-06-24T14:07:36;4.70;;;4.40;;
836;SDS011;400;53.550;9.932;2023-06-24T14:10:05;4.70;;;4.30;;
836;SDS011;400;53.550;9.932;2023-06-24T14:12:37;5.17;;;4.80;;
836;SDS011;400;53.550;9.932;2023-06-24T14:15:12;3.90;;;3.70;;
836;SDS011;400;53.550;9.932;2023-06-24T14:17:46;3.87;;;3.57;;
836;SDS011;400;53.550;9.932;2023-06-24T14:20:20;4.43;;;4.13;;
836;SDS011;400;53.550;9.932;2023-06-24T14:22:47;4.80;;;4.50;;
836;SDS011;400;53.550;9.932;2023-06-24T14:25:17;4.37;;;4.07;;
836;SDS011;400;53.550;9.932;2023-06-24T14:27:49;4.33;;;4.13;;
836;SDS011;400;53.550;9.932;2023-06-24T14:30:18;4.40;;;4.07;;
836;SDS011;400;53.550;9.932;2023-06-24T14:32:48;4.70;;;4.30;;
836;SDS011;400;53.550;9.932;2023-06-24T14:35:18;4.77;;;4.47;;
836;SDS011;400;53.550;9.932;2023-06-24T14:37:49;4.70;;;4.40;;
836;SDS011;400;53.550;9.932;2023-06-24T14:40:26;5.10;;;4.80;;
836;SDS011;400;53.550;9.932;2023-06-24T14:42:53;4.17;;;3.70;;
836;SDS011;400;53.550;9.932;2023-06-24T14:45:29;4.40;;;4.10;;
836;SDS011;400;53.550;9.932;2023-06-24T14:47:56;4.63;;;4.23;;
836;SDS011;400;53.550;9.932;2023-06-24T14:50:23;4.87;;;4.40;;
836;SDS011;400;53.550;9.932;2023-06-24T14:52:50;4.80;;;4.50;;
836;SDS011;400;53.550;9.932;2023-06-24T14:55:17;5.07;;;4.67;;
836;SDS011;400;53.550;9.932;2023-06-24T14:57:45;5.07;;;4.67;;
836;SDS011;400;53.550;9.932;2023-06-24T15:00:12;4.87;;;4.57;;
836;SDS011;400;53.550;9.932;2023-06-24T15:02:40;4.60;;;4.30;;
836;SDS011;400;53.550;9.932;2023-06-24T15:05:09;4.53;;;4.20;;
836;SDS011;400;53.550;9.932;2023-06-24T15:07:37;5.17;;;4.80;;
836;SDS011;400;53.550;9.932;2023-06-24T15:10:15;5.37;;;4.97;;
836;SDS011;400;53.550;9.932;2023-06-24T15:12:54;5.80;;;5.20;;
836;SDS011;400;53.550;9.932;2023-06-24T15:15:21;4.33;;;4.03;;
836;SDS011;400;53.550;9.932;2023-06-24T15:17:48;4.87;;;4.57;;
836;SDS011;400;53.550;9.932;2023-06-24T15:20:14;4.73;;;4.30;;
836;SDS011;400;53.550;9.932;2023-06-24T15:22:41;5.43;;;5.03;;
836;SDS011;400;53.550;9.932;2023-06-24T15:25:10;5.30;;;5.00;;
836;SDS011;400;53.550;9.932;2023-06-24T15:27:38;4.50;;;4.20;;
836;SDS011;400;53.550;9.932;2023-06-24T15:30:08;5.20;;;4.80;;
836;SDS011;400;53.550;9.932;2023-06-24T15:32:40;4.70;;;4.40;;
836;SDS011;400;53.550;9.932;2023-06-24T15:35:20;6.13;;;5.53;;
836;SDS011;400;53.550;9.932;2023-06-24T15:37:51;4.67;;;4.37;;
836;SDS011;400;53.550;9.932;2023-06-24T15:40:21;7.93;;;5.60;;
836;SDS011;400;53.550;9.932;2023-06-24T15:42:52;5.67;;;5.07;;
836;SDS011;400;53.550;9.932;2023-06-24T15:45:21;5.50;;;5.10;;
836;SDS011;400;53.550;9.932;2023-06-24T15:47:51;5.83;;;5.43;;
836;SDS011;400;53.550;9.932;2023-06-24T15:50:31;4.80;;;4.47;;
836;SDS011;400;53.550;9.932;2023-06-24T15:53:02;5.70;;;5.00;;
836;SDS011;400;53.550;9.932;2023-06-24T15:55:28;5.70;;;5.13;;
836;SDS011;400;53.550;9.932;2023-06-24T15:57:56;5.30;;;4.90;;
836;SDS011;400;53.550;9.932;2023-06-24T16:00:28;5.73;;;5.33;;
836;SDS011;400;53.550;9.932;2023-06-24T16:03:03;5.63;;;4.77;;
836;SDS011;400;53.550;9.932;2023-06-24T16:05:32;5.60;;;5.10;;
836;SDS011;400;53.550;9.932;2023-06-24T16:07:59;5.53;;;5.03;;
836;SDS011;400;53.550;9.932;2023-06-24T16:10:26;5.73;;;5.27;;
836;SDS011;400;53.550;9.932;2023-06-24T16:12:53;5.40;;;4.93;;
836;SDS011;400;53.550;9.932;2023-06-24T16:15:20;5.23;;;4.90;;
836;SDS011;400;53.550;9.932;2023-06-24T16:17:49;6.00;;;5.50;;
836;SDS011;400;53.550;9.932;2023-06-24T16:20:16;5.50;;;5.00;;
836;SDS011;400;53.550;9.932;2023-06-24T16:22:48;5.10;;;4.57;;